Time;durP1;ratioP1;P1;durP2;ratioP2;P2;SDS_P1;SDS_P2;PMS_P1;PMS_P2;Temp;Humidity;BMP_temperature;BMP_pressure;BME280_temperature;BME280_humidity;BME280_pressure;Samples;Min_cycle;Max_cycle;Signal;HPM_P1;HPM_P2
2021/09/13 00:01:44;;;;;;;11.43;10.43;;;12.90;1.00;;;;;;5056470;28;20549;-53
2021/09/13 00:04:13;;;;;;;11.67;10.57;;;12.90;1.00;;;;;;5056530;28;20962;-54
2021/09/13 00:06:41;;;;;;;13.33;12.17;;;12.90;99.90;;;;;;5056402;28;20441;-52
2021/09/13 00:09:08;;;;;;;10.57;9.57;;;12.80;1.00;;;;;;5056545;28;20525;-51
2021/09/13 00:11:35;;;;;;;12.60;11.40;;;12.80;1.00;;;;;;5056278;28;20817;-54
2021/09/13 00:14:02;;;;;;;11.80;10.60;;;12.70;1.00;;;;;;5056299;28;20490;-52
2021/09/13 00:16:29;;;;;;;11.17;10.03;;;12.70;99.90;;;;;;5056225;28;20469;-51
2021/09/13 00:18:56;;;;;;;12.33;11.20;;;12.80;99.90;;;;;;5056424;28;20494;-51
2021/09/13 00:21:26;;;;;;;12.03;10.83;;;12.80;99.90;;;;;;5056402;28;20497;-56
2021/09/13 00:23:58;;;;;;;13.93;12.13;;;12.90;99.90;;;;;;5056409;28;20915;-54
2021/09/13 00:26:29;;;;;;;14.07;12.77;;;13.00;99.90;;;;;;5055783;28;20951;-52
2021/09/13 00:28:56;;;;;;;13.97;12.57;;;13.10;99.90;;;;;;5057056;28;20491;-53
2021/09/13 00:31:23;;;;;;;14.30;12.67;;;13.20;99.90;;;;;;5060152;28;20777;-53
2021/09/13 00:33:50;;;;;;;14.27;12.20;;;13.20;99.90;;;;;;5060216;28;20818;-57
2021/09/13 00:36:17;;;;;;;13.20;11.80;;;13.30;99.90;;;;;;5059839;28;20966;-54
2021/09/13 00:38:44;;;;;;;14.10;12.37;;;13.30;99.90;;;;;;5059304;28;20489;-55
2021/09/13 00:41:12;;;;;;;14.20;12.70;;;13.40;99.90;;;;;;5059561;28;20569;-51
2021/09/13 00:43:39;;;;;;;14.30;12.80;;;13.40;38.70;;;;;;5059561;28;20568;-50
2021/09/13 00:46:09;;;;;;;13.97;12.70;;;13.30;1.00;;;;;;5059254;28;20841;-55
2021/09/13 00:48:36;;;;;;;14.40;12.60;;;13.30;66.40;;;;;;5059632;28;21005;-54
2021/09/13 00:51:03;;;;;;;13.83;12.50;;;13.30;99.90;;;;;;5059946;28;20531;-58
2021/09/13 00:53:31;;;;;;;14.50;13.20;;;13.40;99.90;;;;;;5060062;28;20462;-55
2021/09/13 00:55:59;;;;;;;15.40;14.00;;;13.30;1.00;;;;;;5059339;28;20486;-52
2021/09/13 00:58:30;;;;;;;15.73;14.27;;;13.30;99.90;;;;;;5059423;28;20889;-54
2021/09/13 01:00:57;;;;;;;15.70;13.40;;;13.30;1.00;;;;;;5058688;28;20523;-48
2021/09/13 01:03:24;;;;;;;14.27;12.83;;;13.30;1.00;;;;;;5058841;28;20553;-54
2021/09/13 01:05:52;;;;;;;13.23;12.03;;;13.30;99.90;;;;;;5059357;28;20524;-57
2021/09/13 01:08:22;;;;;;;13.87;12.20;;;13.20;1.00;;;;;;5058837;28;20524;-50
2021/09/13 01:10:51;;;;;;;14.77;13.33;;;13.10;1.00;;;;;;5059065;28;20492;-54
2021/09/13 01:13:18;;;;;;;13.80;12.43;;;13.00;1.00;;;;;;5059787;28;20469;-58
2021/09/13 01:15:48;;;;;;;14.50;13.10;;;13.00;1.00;;;;;;5059514;28;20467;-58
2021/09/13 01:18:17;;;;;;;13.20;11.97;;;12.80;1.00;;;;;;5059129;28;20482;-58
2021/09/13 01:20:44;;;;;;;14.27;12.87;;;12.80;3.10;;;;;;5059278;28;20462;-51
2021/09/13 01:23:17;;;;;;;16.60;13.27;;;12.80;99.90;;;;;;5059548;28;20505;-55
2021/09/13 01:25:44;;;;;;;16.07;13.40;;;12.70;99.90;;;;;;5058789;28;20494;-55
2021/09/13 01:28:12;;;;;;;14.00;12.80;;;12.60;99.90;;;;;;5058946;28;20850;-55
2021/09/13 01:30:39;;;;;;;14.23;12.73;;;12.60;99.90;;;;;;5059241;28;20497;-53
2021/09/13 01:33:06;;;;;;;12.70;11.60;;;12.60;99.90;;;;;;5059119;28;20497;-57
2021/09/13 01:35:33;;;;;;;14.57;12.60;;;12.60;99.90;;;;;;5059002;28;20466;-56
2021/09/13 01:38:00;;;;;;;12.70;11.50;;;12.60;99.90;;;;;;5058636;28;20462;-53
2021/09/13 01:40:28;;;;;;;16.60;13.87;;;12.60;99.90;;;;;;5057645;28;20502;-53
2021/09/13 01:46:17;;;;;;;14.87;13.47;;;12.60;99.90;;;;;;5058101;28;20868;-51
2021/09/13 01:48:44;;;;;;;15.10;13.60;;;12.60;99.90;;;;;;5058625;28;20515;-54
2021/09/13 01:51:11;;;;;;;14.60;13.20;;;12.60;99.90;;;;;;5058774;28;20546;-55
2021/09/13 01:53:38;;;;;;;13.60;12.20;;;12.50;14.70;;;;;;5058665;28;20486;-54
2021/09/13 01:56:06;;;;;;;14.17;12.77;;;12.50;1.00;;;;;;5058533;28;20532;-50
2021/09/13 01:58:33;;;;;;;13.57;12.33;;;12.50;1.00;;;;;;5058414;28;20498;-56
2021/09/13 02:01:00;;;;;;;14.13;12.80;;;12.50;99.90;;;;;;5058629;28;20472;-53
2021/09/13 02:03:27;;;;;;;15.57;14.00;;;12.40;99.90;;;;;;5058663;28;20466;-53
2021/09/13 02:05:54;;;;;;;15.30;13.33;;;12.40;99.90;;;;;;5058419;28;20497;-51
2021/09/13 02:08:21;;;;;;;16.37;12.93;;;12.40;1.00;;;;;;5058236;28;20924;-56
2021/09/13 02:10:48;;;;;;;13.03;11.90;;;12.40;1.00;;;;;;5058087;28;20468;-57
2021/09/13 02:13:17;;;;;;;12.77;11.40;;;12.40;88.90;;;;;;5058396;28;20557;-56
2021/09/13 02:15:44;;;;;;;13.83;12.63;;;12.30;1.00;;;;;;5058380;28;20557;-54
2021/09/13 02:18:11;;;;;;;12.63;11.43;;;12.30;1.00;;;;;;5057801;28;20466;-56
2021/09/13 02:20:38;;;;;;;13.40;12.00;;;12.30;99.90;;;;;;5058295;28;20745;-54
2021/09/13 02:23:11;;;;;;;16.10;11.57;;;12.20;99.90;;;;;;5057854;28;20493;-57
2021/09/13 02:25:38;;;;;;;13.33;11.90;;;12.20;99.90;;;;;;5057579;28;20493;-56
2021/09/13 02:28:05;;;;;;;12.70;11.47;;;12.20;99.90;;;;;;5057330;28;20556;-53
2021/09/13 02:30:33;;;;;;;13.03;11.73;;;12.20;58.10;;;;;;5057753;28;20843;-56
2021/09/13 02:33:00;;;;;;;12.60;11.40;;;12.10;99.90;;;;;;5058013;28;20900;-52
2021/09/13 02:35:27;;;;;;;13.20;11.80;;;12.00;99.90;;;;;;5057886;28;20545;-54
2021/09/13 02:37:55;;;;;;;14.20;12.70;;;12.00;99.90;;;;;;5057143;28;20466;-52
2021/09/13 02:40:26;;;;;;;13.23;11.93;;;12.00;99.90;;;;;;5057812;28;20490;-57
2021/09/13 02:42:54;;;;;;;16.60;13.43;;;12.00;99.90;;;;;;5057704;28;20935;-54
2021/09/13 02:45:23;;;;;;;16.47;14.03;;;12.00;99.90;;;;;;5057760;28;20466;-57
2021/09/13 02:47:52;;;;;;;14.30;12.90;;;12.00;99.90;;;;;;5057500;28;20915;-58
2021/09/13 02:50:19;;;;;;;14.10;12.70;;;12.00;99.90;;;;;;5057230;28;20791;-56
2021/09/13 02:52:45;;;;;;;13.80;12.27;;;12.00;99.90;;;;;;5056834;28;20494;-54
2021/09/13 02:55:12;;;;;;;14.33;12.83;;;12.00;99.90;;;;;;5057379;28;20516;-50
2021/09/13 02:57:39;;;;;;;16.33;13.27;;;12.00;99.90;;;;;;5057566;28;20832;-53
2021/09/13 03:00:08;;;;;;;15.23;12.87;;;11.90;99.90;;;;;;5057392;28;20486;-58
2021/09/13 03:02:35;;;;;;;19.67;13.60;;;12.00;99.90;;;;;;5057097;28;20538;-57
2021/09/13 03:05:03;;;;;;;15.07;13.67;;;12.00;99.90;;;;;;5057175;28;20506;-58
2021/09/13 03:07:30;;;;;;;15.50;13.67;;;11.90;99.90;;;;;;5057386;28;20466;-57
2021/09/13 03:09:57;;;;;;;15.50;13.27;;;11.90;99.90;;;;;;5051355;28;20544;-57
2021/09/13 03:12:24;;;;;;;14.43;13.00;;;11.90;99.90;;;;;;5036750;28;20816;-58
2021/09/13 03:14:51;;;;;;;14.77;13.30;;;11.90;99.90;;;;;;5037043;28;20894;-57
2021/09/13 03:17:18;;;;;;;16.30;14.60;;;12.00;99.90;;;;;;5036523;28;20499;-57
2021/09/13 03:19:45;;;;;;;18.90;14.60;;;11.90;99.90;;;;;;5036303;28;20499;-53
2021/09/13 03:22:14;;;;;;;15.23;13.63;;;11.90;99.90;;;;;;5035636;28;20917;-54
2021/09/13 03:24:40;;;;;;;16.43;14.57;;;11.80;99.90;;;;;;5035493;28;20564;-56
2021/09/13 03:27:07;;;;;;;16.77;13.83;;;11.70;99.90;;;;;;5035974;28;20486;-56
2021/09/13 03:29:34;;;;;;;14.00;12.70;;;11.70;99.90;;;;;;5035887;28;20529;-58
2021/09/13 03:32:01;;;;;;;14.23;12.83;;;11.70;99.90;;;;;;5035538;28;20513;-55
2021/09/13 03:34:31;;;;;;;18.00;15.70;;;11.80;99.90;;;;;;5035996;28;20829;-54
2021/09/13 03:36:59;;;;;;;15.33;13.77;;;11.80;99.90;;;;;;5036105;28;20490;-55
2021/09/13 03:39:28;;;;;;;16.30;14.27;;;11.80;99.90;;;;;;5036731;28;20463;-58
2021/09/13 03:41:55;;;;;;;19.23;14.00;;;11.80;99.90;;;;;;5037149;28;20467;-56
2021/09/13 03:44:22;;;;;;;15.37;13.70;;;11.70;99.90;;;;;;5037064;28;20467;-55
2021/09/13 03:46:48;;;;;;;14.93;13.50;;;11.70;99.90;;;;;;5036654;28;20565;-58
2021/09/13 03:49:15;;;;;;;16.77;15.13;;;11.70;99.90;;;;;;5045710;28;20494;-58
2021/09/13 03:51:42;;;;;;;14.57;13.17;;;11.70;99.90;;;;;;5056708;28;20508;-58
2021/09/13 03:54:09;;;;;;;14.60;13.20;;;11.60;99.90;;;;;;5056359;28;20820;-56
2021/09/13 03:56:37;;;;;;;16.57;14.53;;;11.60;99.90;;;;;;5056417;28;20465;-58
2021/09/13 03:59:04;;;;;;;15.07;13.67;;;11.60;99.90;;;;;;5056135;28;20479;-57
2021/09/13 04:01:32;;;;;;;15.63;14.03;;;11.60;99.90;;;;;;5057032;28;20486;-57
2021/09/13 04:04:01;;;;;;;17.60;15.70;;;11.60;99.90;;;;;;5056211;28;20881;-54
2021/09/13 04:06:39;;;;;;;17.80;14.73;;;11.50;99.90;;;;;;5060437;28;20441;-55
2021/09/13 04:11:56;;;;;;;15.00;13.50;;;11.50;99.90;;;;;;5040561;28;20446;-58
2021/09/13 04:14:24;;;;;;;16.70;14.47;;;11.50;99.90;;;;;;5040371;28;20441;-52
2021/09/13 04:16:51;;;;;;;17.93;16.03;;;11.50;99.90;;;;;;5039730;28;20490;-55
2021/09/13 04:19:19;;;;;;;19.20;15.77;;;11.50;99.90;;;;;;5038934;28;20494;-58
2021/09/13 04:21:46;;;;;;;17.63;15.83;;;11.50;99.90;;;;;;5039733;28;20461;-54
2021/09/13 04:24:14;;;;;;;21.13;16.47;;;11.50;99.90;;;;;;5039479;28;20438;-57
2021/09/13 04:26:43;;;;;;;19.87;17.33;;;11.60;99.90;;;;;;5039877;28;20509;-57
2021/09/13 04:29:15;;;;;;;22.17;16.53;;;11.50;99.90;;;;;;5039967;28;20866;-57
2021/09/13 04:31:42;;;;;;;18.33;16.37;;;11.50;99.90;;;;;;5040010;28;20937;-58
2021/09/13 04:34:09;;;;;;;19.20;17.30;;;11.50;99.90;;;;;;5039671;28;20498;-55
2021/09/13 04:36:36;;;;;;;17.03;14.67;;;11.50;99.90;;;;;;5040042;28;20487;-58
2021/09/13 04:39:03;;;;;;;21.23;16.70;;;11.50;99.90;;;;;;5040160;28;20467;-58
2021/09/13 04:41:30;;;;;;;18.63;16.60;;;11.40;99.90;;;;;;5040353;28;20497;-58
2021/09/13 04:43:57;;;;;;;20.20;18.10;;;11.40;99.90;;;;;;5040235;28;20557;-58
2021/09/13 04:46:25;;;;;;;19.17;17.17;;;11.40;99.90;;;;;;5044906;28;20497;-57
2021/09/13 04:48:52;;;;;;;18.50;16.60;;;11.40;99.90;;;;;;5059232;28;20466;-57
2021/09/13 04:51:21;;;;;;;19.73;17.73;;;11.30;99.90;;;;;;5060226;28;20462;-56
2021/09/13 04:53:48;;;;;;;20.97;18.07;;;11.40;99.90;;;;;;5059782;28;20458;-58
2021/09/13 04:56:15;;;;;;;21.37;19.07;;;11.30;99.90;;;;;;5059773;28;20493;-57
2021/09/13 04:58:42;;;;;;;23.37;20.43;;;11.30;99.90;;;;;;5059592;28;20935;-58
2021/09/13 05:01:09;;;;;;;23.20;19.20;;;11.40;99.90;;;;;;5059846;28;20497;-58
2021/09/13 05:03:37;;;;;;;18.07;16.27;;;11.30;99.90;;;;;;5059872;28;20505;-58
2021/09/13 05:06:05;;;;;;;17.50;15.70;;;11.30;99.90;;;;;;5059350;28;20978;-58
2021/09/13 05:08:32;;;;;;;19.53;17.43;;;11.30;99.90;;;;;;5059519;28;20428;-58
2021/09/13 05:10:59;;;;;;;17.20;15.40;;;11.30;99.90;;;;;;5044694;28;20561;-58
2021/09/13 05:13:26;;;;;;;18.10;14.97;;;11.30;99.90;;;;;;5039666;28;20509;-57
2021/09/13 05:15:53;;;;;;;19.63;15.60;;;11.30;99.90;;;;;;5039435;28;20474;-58
2021/09/13 05:18:20;;;;;;;20.30;16.73;;;11.30;99.90;;;;;;5039202;28;20438;-58
2021/09/13 05:20:52;;;;;;;18.47;16.50;;;11.30;99.90;;;;;;5039299;28;20817;-59
2021/09/13 05:23:19;;;;;;;17.40;14.90;;;11.30;99.90;;;;;;5039178;28;20488;-58
2021/09/13 05:25:46;;;;;;;17.20;15.53;;;11.30;99.90;;;;;;5038871;28;20527;-57
2021/09/13 05:28:13;;;;;;;16.73;15.03;;;11.40;99.90;;;;;;5039199;28;20459;-55
2021/09/13 05:30:40;;;;;;;20.80;15.87;;;11.40;99.90;;;;;;5055741;28;20547;-58
2021/09/13 05:33:08;;;;;;;18.93;15.90;;;11.40;99.90;;;;;;5058972;28;20502;-58
2021/09/13 05:35:35;;;;;;;19.23;15.60;;;11.40;99.90;;;;;;5058110;28;20607;-59
2021/09/13 05:38:04;;;;;;;19.87;16.10;;;11.50;99.90;;;;;;5058420;28;20553;-59
2021/09/13 05:40:31;;;;;;;17.03;15.23;;;11.50;99.90;;;;;;5058570;28;20462;-59
2021/09/13 05:43:01;;;;;;;17.30;14.90;;;11.50;99.90;;;;;;5058800;28;20473;-59
2021/09/13 05:45:29;;;;;;;19.13;17.03;;;11.60;99.90;;;;;;5057473;28;20441;-58
2021/09/13 05:47:58;;;;;;;19.27;15.70;;;11.70;99.90;;;;;;5057457;28;20515;-58
2021/09/13 05:50:26;;;;;;;18.50;16.60;;;11.80;99.90;;;;;;5056288;28;20494;-58
2021/09/13 05:52:53;;;;;;;17.43;15.77;;;11.90;99.90;;;;;;5056966;28;20547;-58
2021/09/13 05:55:21;;;;;;;18.30;16.40;;;11.90;99.90;;;;;;5056754;28;20554;-58
2021/09/13 05:57:54;;;;;;;18.17;16.37;;;12.00;99.90;;;;;;5056721;28;20466;-58
2021/09/13 06:00:21;;;;;;;20.53;17.07;;;12.10;99.90;;;;;;5056932;28;20440;-59
2021/09/13 06:02:48;;;;;;;19.33;17.23;;;12.20;99.90;;;;;;5058101;28;20466;-59
2021/09/13 06:05:15;;;;;;;21.20;17.10;;;12.30;99.90;;;;;;5058238;28;20472;-59
2021/09/13 06:07:42;;;;;;;21.60;18.70;;;12.30;99.90;;;;;;5058462;28;20891;-59
2021/09/13 06:10:10;;;;;;;22.97;20.50;;;12.40;99.90;;;;;;5050947;28;20548;-57
2021/09/13 06:12:38;;;;;;;25.00;22.33;;;12.50;99.90;;;;;;5038428;28;20528;-58
2021/09/13 06:15:08;;;;;;;24.00;21.40;;;12.60;99.90;;;;;;5038397;28;20948;-59
2021/09/13 06:17:35;;;;;;;23.57;20.47;;;12.70;99.90;;;;;;5038257;28;20520;-59
2021/09/13 06:20:04;;;;;;;24.10;21.47;;;12.90;99.90;;;;;;5038438;28;20482;-59
2021/09/13 06:22:32;;;;;;;26.00;23.40;;;12.90;99.90;;;;;;5038525;28;20463;-59
2021/09/13 06:25:01;;;;;;;26.60;23.90;;;13.00;99.90;;;;;;5037738;28;20599;-59
2021/09/13 06:27:28;;;;;;;25.13;22.23;;;13.00;99.90;;;;;;5037445;28;20908;-58
2021/09/13 06:29:57;;;;;;;26.67;22.80;;;13.10;99.90;;;;;;5037597;28;20589;-59
2021/09/13 06:32:24;;;;;;;28.00;22.53;;;13.10;99.90;;;;;;5056408;28;20964;-59
2021/09/13 06:34:51;;;;;;;25.07;21.90;;;13.10;99.90;;;;;;5057058;28;20466;-59
2021/09/13 06:37:20;;;;;;;24.13;21.73;;;13.20;99.90;;;;;;5057427;28;20493;-59
2021/09/13 06:39:47;;;;;;;26.73;23.87;;;13.40;99.90;;;;;;5057699;28;20462;-59
2021/09/13 06:42:17;;;;;;;26.97;22.87;;;13.40;99.90;;;;;;5057601;28;20564;-59
2021/09/13 06:44:47;;;;;;;25.80;23.00;;;13.40;99.90;;;;;;5057447;28;20498;-60
2021/09/13 06:47:33;;;;;;;27.67;23.80;;;13.50;99.90;;;;;;5057615;28;20556;-58
2021/09/13 06:50:05;;;;;;;28.03;24.90;;;13.70;99.90;;;;;;5057077;28;20500;-60
2021/09/13 06:52:32;;;;;;;28.37;23.00;;;13.80;99.90;;;;;;5057418;28;20462;-59
2021/09/13 06:55:01;;;;;;;27.80;24.80;;;13.70;99.90;;;;;;5057709;28;20561;-59
2021/09/13 06:57:31;;;;;;;25.87;23.30;;;13.80;99.90;;;;;;5057668;28;20493;-59
2021/09/13 07:00:00;;;;;;;27.70;24.73;;;13.90;99.90;;;;;;5056691;28;20520;-58
2021/09/13 07:02:32;;;;;;;27.47;24.57;;;14.00;99.90;;;;;;5057220;28;20466;-57
2021/09/13 07:04:59;;;;;;;33.30;27.17;;;14.10;99.90;;;;;;5057278;28;20437;-59
2021/09/13 07:07:26;;;;;;;37.07;29.40;;;14.20;99.90;;;;;;5057723;28;20458;-57
2021/09/13 07:09:52;;;;;;;39.50;29.80;;;14.30;99.90;;;;;;5057399;28;20465;-59
2021/09/13 07:12:20;;;;;;;41.27;31.63;;;14.40;99.90;;;;;;5057080;28;20462;-56
2021/09/13 07:14:50;;;;;;;52.83;37.00;;;14.50;99.90;;;;;;5057217;28;20768;-59
2021/09/13 07:17:18;;;;;;;52.13;36.70;;;14.60;99.90;;;;;;5057007;28;20556;-59
2021/09/13 07:19:47;;;;;;;49.03;36.67;;;14.60;99.90;;;;;;5057338;28;20473;-57
2021/09/13 07:22:14;;;;;;;42.70;36.07;;;14.60;99.90;;;;;;5056543;28;20501;-56
2021/09/13 07:24:43;;;;;;;53.50;38.23;;;14.60;99.90;;;;;;5056734;28;20960;-59
2021/09/13 07:27:12;;;;;;;50.60;36.53;;;14.70;99.90;;;;;;5056833;28;20462;-59
2021/09/13 07:29:40;;;;;;;46.97;35.27;;;14.70;99.90;;;;;;5053200;28;20505;-59
2021/09/13 07:32:07;;;;;;;48.40;36.47;;;14.70;99.90;;;;;;5053240;28;20753;-58
2021/09/13 07:34:38;;;;;;;42.23;33.07;;;14.70;99.90;;;;;;5056357;28;20512;-58
2021/09/13 07:37:09;;;;;;;48.67;36.70;;;14.70;99.90;;;;;;5055948;28;20875;-59
2021/09/13 07:39:36;;;;;;;45.73;34.80;;;14.70;99.90;;;;;;5045703;28;20490;-59
2021/09/13 07:42:03;;;;;;;49.20;34.50;;;14.70;99.90;;;;;;5059826;28;20739;-57
2021/09/13 07:44:30;;;;;;;44.10;36.07;;;14.80;99.90;;;;;;5060412;28;20896;-58
2021/09/13 07:46:57;;;;;;;45.03;35.73;;;14.90;99.90;;;;;;5057649;28;20466;-58
2021/09/13 07:49:24;;;;;;;42.33;34.90;;;15.00;99.90;;;;;;5060697;28;20497;-55
2021/09/13 07:51:56;;;;;;;44.07;34.17;;;15.00;99.90;;;;;;5060239;28;20609;-58
2021/09/13 07:54:26;;;;;;;45.67;34.23;;;15.00;99.90;;;;;;5059865;28;20508;-57
2021/09/13 07:56:53;;;;;;;40.23;33.70;;;15.10;99.90;;;;;;5060550;28;20910;-58
2021/09/13 07:59:24;;;;;;;42.77;34.77;;;15.10;99.90;;;;;;5060714;28;20467;-54
2021/09/13 08:01:54;;;;;;;43.17;33.97;;;15.20;99.90;;;;;;5060110;28;20462;-58
2021/09/13 08:04:21;;;;;;;43.00;34.50;;;15.20;99.90;;;;;;5059417;28;20942;-54
2021/09/13 08:06:48;;;;;;;41.47;34.20;;;15.40;99.90;;;;;;5060110;28;20480;-57
2021/09/13 08:09:15;;;;;;;39.47;33.90;;;15.50;1.00;;;;;;5059281;28;20494;-51
2021/09/13 08:11:43;;;;;;;42.30;34.30;;;15.50;1.00;;;;;;5040170;28;20585;-58
2021/09/13 08:14:12;;;;;;;45.07;33.03;;;15.60;27.40;;;;;;5039669;28;20902;-51
2021/09/13 08:16:39;;;;;;;40.90;32.47;;;15.60;1.00;;;;;;5040260;28;20467;-54
2021/09/13 08:19:08;;;;;;;36.60;32.30;;;15.70;1.00;;;;;;5040422;28;20466;-58
2021/09/13 08:21:39;;;;;;;40.07;32.70;;;15.90;1.00;;;;;;5040388;28;20440;-51
2021/09/13 08:24:07;;;;;;;37.70;32.03;;;15.90;99.90;;;;;;5039785;28;20524;-57
2021/09/13 08:26:40;;;;;;;36.90;31.40;;;16.00;17.20;;;;;;5059774;28;20540;-56
2021/09/13 08:29:14;;;;;;;38.10;32.17;;;16.00;1.00;;;;;;5060496;28;20461;-52
2021/09/13 08:31:41;;;;;;;35.60;31.63;;;16.00;99.90;;;;;;5060187;28;20973;-56
2021/09/13 08:34:13;;;;;;;38.70;32.93;;;16.10;99.90;;;;;;5059989;28;20912;-54
2021/09/13 08:36:41;;;;;;;37.57;31.87;;;16.30;99.90;;;;;;5059791;28;20437;-51
2021/09/13 08:39:08;;;;;;;35.87;31.07;;;16.40;99.90;;;;;;5060221;28;20462;-56
2021/09/13 08:41:36;;;;;;;35.50;30.00;;;16.70;1.00;;;;;;5060319;28;20504;-56
2021/09/13 08:44:07;;;;;;;33.03;29.60;;;17.00;99.90;;;;;;5059854;28;20486;-54
2021/09/13 08:46:43;;;;;;;35.20;29.00;;;17.20;56.70;;;;;;5060044;28;20865;-54
2021/09/13 08:49:24;;;;;;;31.00;27.33;;;17.60;1.00;;;;;;5060041;28;20436;-56
2021/09/13 08:51:54;;;;;;;30.60;27.30;;;18.00;1.00;;;;;;5059849;28;20489;-53
2021/09/13 08:54:21;;;;;;;34.83;26.97;;;18.00;1.00;;;;;;5059901;28;20463;-52
2021/09/13 08:56:52;;;;;;;30.30;27.07;;;17.60;1.00;;;;;;5059396;28;20536;-54
2021/09/13 08:59:23;;;;;;;29.40;25.90;;;17.50;1.00;;;;;;5060122;28;20437;-51
2021/09/13 09:01:53;;;;;;;31.10;27.90;;;17.50;1.00;;;;;;5059699;28;20805;-53
2021/09/13 09:04:24;;;;;;;24.87;22.37;;;18.00;1.00;;;;;;5059778;28;20462;-55
2021/09/13 09:06:51;;;;;;;26.00;23.50;;;19.10;1.00;;;;;;5059649;28;20489;-51
2021/09/13 09:09:20;;;;;;;25.90;23.43;;;19.90;1.00;;;;;;5059029;28;20501;-49
2021/09/13 09:12:01;;;;;;;27.00;22.40;;;20.30;1.00;;;;;;5039653;28;20491;-47
2021/09/13 09:14:32;;;;;;;25.10;22.70;;;20.70;1.00;;;;;;5039663;28;20463;-52
2021/09/13 09:17:05;;;;;;;23.23;20.83;;;21.00;1.00;;;;;;5039633;28;20885;-52
2021/09/13 09:19:39;;;;;;;23.47;21.00;;;21.50;1.00;;;;;;5039571;28;20470;-48
2021/09/13 09:22:24;;;;;;;23.27;20.97;;;21.60;99.90;;;;;;5038881;28;20458;-52
2021/09/13 09:24:53;;;;;;;24.10;21.90;;;22.00;99.90;;;;;;5039002;28;20987;-50
2021/09/13 09:27:20;;;;;;;23.07;20.80;;;22.10;99.90;;;;;;5039236;28;20872;-52
2021/09/13 09:29:47;;;;;;;23.43;21.13;;;21.70;99.90;;;;;;5042045;28;20504;-50
2021/09/13 09:32:26;;;;;;;23.10;20.10;;;21.60;99.90;;;;;;5058703;28;20502;-50
2021/09/13 09:34:56;;;;;;;22.47;20.27;;;21.80;99.90;;;;;;5059196;28;20505;-55
2021/09/13 09:37:25;;;;;;;20.50;18.47;;;22.20;99.90;;;;;;5059127;28;20493;-54
2021/09/13 09:39:55;;;;;;;21.10;19.20;;;22.60;99.90;;;;;;5059268;28;20448;-51
2021/09/13 09:42:34;;;;;;;20.00;17.90;;;22.70;99.90;;;;;;5058718;28;20486;-52
2021/09/13 09:45:05;;;;;;;19.30;17.50;;;22.80;99.90;;;;;;5058981;28;20498;-50
2021/09/13 09:47:36;;;;;;;19.40;17.53;;;22.90;99.90;;;;;;5058014;28;20825;-50
2021/09/13 09:50:03;;;;;;;18.03;16.13;;;22.40;99.90;;;;;;5058479;28;20493;-50
2021/09/13 09:52:36;;;;;;;17.07;15.50;;;22.40;99.90;;;;;;5058259;28;20537;-49
2021/09/13 09:55:17;;;;;;;17.13;15.63;;;23.10;99.90;;;;;;5058540;28;20528;-49
2021/09/13 09:58:03;;;;;;;16.83;13.97;;;23.10;99.90;;;;;;5058613;28;20490;-53
2021/09/13 10:00:30;;;;;;;8.70;8.00;;;23.60;99.90;;;;;;5058677;28;20492;-49
2021/09/13 10:02:59;;;;;;;9.60;8.70;;;24.00;99.90;;;;;;5057406;28;20561;-48
2021/09/13 10:05:29;;;;;;;5.47;4.97;;;24.10;99.90;;;;;;5058494;28;20557;-53
2021/09/13 10:07:56;;;;;;;5.23;4.83;;;24.40;99.90;;;;;;5057996;28;20553;-49
2021/09/13 10:10:29;;;;;;;7.67;7.07;;;24.50;99.90;;;;;;5048578;28;20459;-51
2021/09/13 10:13:00;;;;;;;7.87;6.63;;;24.50;99.90;;;;;;5038817;28;20475;-51
2021/09/13 10:15:29;;;;;;;8.43;7.67;;;24.10;99.90;;;;;;5038587;28;20884;-47
2021/09/13 10:17:58;;;;;;;7.90;7.20;;;23.80;99.90;;;;;;5038848;28;20905;-49
2021/09/13 10:20:26;;;;;;;10.23;7.80;;;24.30;99.90;;;;;;5049954;28;20492;-51
2021/09/13 10:22:55;;;;;;;7.60;6.80;;;24.60;99.90;;;;;;5057618;28;20458;-56
2021/09/13 10:25:25;;;;;;;5.73;5.23;;;24.60;99.90;;;;;;5057801;28;20522;-54
2021/09/13 10:28:08;;;;;;;5.07;4.67;;;24.40;99.90;;;;;;5058384;28;20882;-52
2021/09/13 10:30:53;;;;;;;3.70;3.40;;;24.50;99.90;;;;;;5057826;28;20486;-49
2021/09/13 10:33:20;;;;;;;4.70;4.30;;;25.10;99.90;;;;;;5057967;28;20466;-53
2021/09/13 10:35:59;;;;;;;5.53;5.03;;;25.40;99.90;;;;;;5058200;28;20501;-51
2021/09/13 10:38:45;;;;;;;4.60;4.20;;;25.30;99.90;;;;;;5057457;28;20523;-49
2021/09/13 10:41:15;;;;;;;3.90;3.60;;;25.20;99.90;;;;;;5057138;28;20455;-53
2021/09/13 10:44:06;;;;;;;4.70;4.27;;;25.10;99.90;;;;;;5057776;28;20904;-53
2021/09/13 10:47:01;;;;;;;4.77;4.30;;;24.90;99.90;;;;;;5057460;28;20819;-52
2021/09/13 10:49:30;;;;;;;8.63;7.83;;;25.20;99.90;;;;;;5063139;28;20465;-52
2021/09/13 10:52:33;;;;;;;8.10;7.40;;;25.30;99.90;;;;;;5077025;28;20896;-49
2021/09/13 10:55:38;;;;;;;10.53;8.90;;;24.80;99.90;;;;;;5070523;28;20534;-50
2021/09/13 10:58:13;;;;;;;10.50;9.60;;;24.90;99.90;;;;;;4975867;28;20536;-50
2021/09/13 11:00:57;;;;;;;10.10;9.10;;;25.00;99.90;;;;;;4976369;28;20465;-49
2021/09/13 11:03:49;;;;;;;10.13;9.13;;;25.20;99.90;;;;;;5042181;28;20519;-53
2021/09/13 11:06:43;;;;;;;9.47;8.67;;;25.20;99.90;;;;;;5037222;28;20494;-48
2021/09/13 11:09:22;;;;;;;9.13;8.33;;;25.30;99.90;;;;;;5036916;28;20901;-49
2021/09/13 11:11:56;;;;;;;8.30;7.60;;;25.70;99.90;;;;;;5037498;28;20494;-46
2021/09/13 11:14:24;;;;;;;9.27;8.37;;;25.80;99.90;;;;;;5037008;28;20965;-49
2021/09/13 11:16:53;;;;;;;9.60;8.83;;;26.20;99.90;;;;;;5037508;28;20509;-53
2021/09/13 11:19:26;;;;;;;10.93;9.93;;;26.50;99.90;;;;;;5037396;28;20521;-54
2021/09/13 11:21:54;;;;;;;11.43;10.40;;;25.50;99.90;;;;;;5037371;28;20462;-47
2021/09/13 11:24:24;;;;;;;11.67;10.57;;;25.80;99.90;;;;;;5036502;28;20562;-48
2021/09/13 11:26:53;;;;;;;10.07;9.17;;;23.90;99.90;;;;;;5037350;28;20755;-53
2021/09/13 11:29:27;;;;;;;13.83;10.73;;;23.60;99.90;;;;;;5037133;28;20463;-54
2021/09/13 11:31:56;;;;;;;11.47;10.10;;;24.20;99.90;;;;;;5037302;28;20541;-47
2021/09/13 11:34:32;;;;;;;9.83;8.93;;;24.50;99.90;;;;;;5036891;28;20487;-50
2021/09/13 11:37:10;;;;;;;10.67;9.57;;;25.20;99.90;;;;;;5037001;28;20816;-47
2021/09/13 11:39:43;;;;;;;10.90;9.90;;;25.20;99.90;;;;;;5036835;28;20562;-48
2021/09/13 11:42:11;;;;;;;9.67;8.77;;;24.20;99.90;;;;;;5036527;28;20779;-48
2021/09/13 11:44:43;;;;;;;10.50;9.53;;;24.90;99.90;;;;;;5036763;28;20488;-49
2021/09/13 11:47:12;;;;;;;10.77;9.87;;;24.60;99.90;;;;;;5036921;28;20433;-46
2021/09/13 11:49:44;;;;;;;10.43;9.43;;;24.30;99.90;;;;;;5048913;28;20469;-46
2021/09/13 11:52:19;;;;;;;9.27;8.37;;;24.10;99.90;;;;;;5055475;28;20501;-47
2021/09/13 11:54:55;;;;;;;11.13;10.13;;;24.70;99.90;;;;;;5055926;28;20884;-52
2021/09/13 11:57:29;;;;;;;9.97;9.13;;;25.00;99.90;;;;;;5057021;28;20462;-53
2021/09/13 12:00:01;;;;;;;9.40;8.50;;;24.90;99.90;;;;;;5056925;28;20557;-49
2021/09/13 12:02:29;;;;;;;11.33;9.97;;;24.40;99.90;;;;;;5056512;28;20447;-50
2021/09/13 12:04:58;;;;;;;9.77;8.93;;;24.10;99.90;;;;;;5061134;28;20461;-54
2021/09/13 12:07:25;;;;;;;10.67;9.77;;;24.10;99.90;;;;;;5066310;28;20468;-47
2021/09/13 12:09:59;;;;;;;11.10;10.20;;;24.00;99.90;;;;;;5051480;28;20511;-51
2021/09/13 12:12:27;;;;;;;10.80;9.70;;;23.90;99.90;;;;;;5050310;28;20486;-52
2021/09/13 12:15:06;;;;;;;9.97;9.07;;;23.90;99.90;;;;;;5034535;28;20513;-49
2021/09/13 12:17:41;;;;;;;11.57;10.47;;;23.90;99.90;;;;;;5035368;28;20940;-50
2021/09/13 12:20:30;;;;;;;9.63;8.63;;;23.80;99.90;;;;;;5034738;28;20513;-50
2021/09/13 12:23:01;;;;;;;10.13;9.23;;;23.90;99.90;;;;;;5036108;28;20455;-52
2021/09/13 12:25:39;;;;;;;10.93;9.93;;;23.60;99.90;;;;;;5037375;28;20465;-49
2021/09/13 12:28:06;;;;;;;9.40;8.50;;;23.00;99.90;;;;;;5039717;28;20528;-53
2021/09/13 12:30:34;;;;;;;11.27;10.10;;;23.20;99.90;;;;;;5040350;28;20728;-50
2021/09/13 12:33:06;;;;;;;9.63;8.70;;;23.40;99.90;;;;;;5040280;28;20589;-47
2021/09/13 12:35:39;;;;;;;10.17;9.07;;;23.70;99.90;;;;;;5040461;28;20463;-51
2021/09/13 12:38:09;;;;;;;9.03;8.27;;;23.10;99.90;;;;;;5039688;28;20510;-54
2021/09/13 12:40:50;;;;;;;10.20;8.90;;;22.50;99.90;;;;;;5044213;28;20440;-52
2021/09/13 12:43:19;;;;;;;9.30;8.60;;;22.80;99.90;;;;;;5057749;28;20494;-53
2021/09/13 12:45:46;;;;;;;8.70;7.80;;;22.50;99.90;;;;;;5059818;28;20553;-49
2021/09/13 12:48:24;;;;;;;9.90;9.03;;;22.50;99.90;;;;;;5059749;28;20437;-50
2021/09/13 12:50:58;;;;;;;10.60;8.73;;;22.70;99.90;;;;;;5059439;28;20900;-49